sensor_id;sensor_type;location;lat;lon;timestamp;temperature;humidity
16200;DHT22;8207;52.494;4.654;2022-07-29T00:01:14;16.60;63.70
16200;DHT22;8207;52.494;4.654;2022-07-29T00:03:41;16.60;60.80
16200;DHT22;8207;52.494;4.654;2022-07-29T00:06:07;16.60;63.20
16200;DHT22;8207;52.494;4.654;2022-07-29T00:08:34;16.60;64.80
16200;DHT22;8207;52.494;4.654;2022-07-29T00:11:02;16.60;65.90
16200;DHT22;8207;52.494;4.654;2022-07-29T00:13:29;16.60;66.70
16200;DHT22;8207;52.494;4.654;2022-07-29T00:15:57;16.60;67.30
16200;DHT22;8207;52.494;4.654;2022-07-29T00:18:24;16.50;70.30
16200;DHT22;8207;52.494;4.654;2022-07-29T00:20:51;16.50;72.70
16200;DHT22;8207;52.494;4.654;2022-07-29T00:23:17;16.50;74.70
16200;DHT22;8207;52.494;4.654;2022-07-29T00:25:45;16.50;76.70
16200;DHT22;8207;52.494;4.654;2022-07-29T00:28:11;16.40;80.10
16200;DHT22;8207;52.494;4.654;2022-07-29T00:30:38;16.40;80.30
16200;DHT22;8207;52.494;4.654;2022-07-29T00:33:08;16.50;82.10
16200;DHT22;8207;52.494;4.654;2022-07-29T00:35:35;16.40;81.20
16200;DHT22;8207;52.494;4.654;2022-07-29T00:38:10;16.50;81.90
16200;DHT22;8207;52.494;4.654;2022-07-29T00:40:38;16.50;79.40
16200;DHT22;8207;52.494;4.654;2022-07-29T00:43:05;16.40;83.50
16200;DHT22;8207;52.494;4.654;2022-07-29T00:45:32;16.50;85.80
16200;DHT22;8207;52.494;4.654;2022-07-29T00:47:58;16.40;87.50
16200;DHT22;8207;52.494;4.654;2022-07-29T00:50:27;16.40;91.30
16200;DHT22;8207;52.494;4.654;2022-07-29T00:52:54;16.40;90.90
16200;DHT22;8207;52.494;4.654;2022-07-29T00:55:21;16.40;89.30
16200;DHT22;8207;52.494;4.654;2022-07-29T00:57:49;16.40;90.40
16200;DHT22;8207;52.494;4.654;2022-07-29T01:00:18;16.40;91.00
16200;DHT22;8207;52.494;4.654;2022-07-29T01:02:46;16.40;93.80
16200;DHT22;8207;52.494;4.654;2022-07-29T01:05:15;16.40;94.10
16200;DHT22;8207;52.494;4.654;2022-07-29T01:07:45;16.40;95.00
16200;DHT22;8207;52.494;4.654;2022-07-29T01:10:13;16.30;96.10
16200;DHT22;8207;52.494;4.654;2022-07-29T01:12:41;16.30;97.50
16200;DHT22;8207;52.494;4.654;2022-07-29T01:15:09;16.40;96.20
16200;DHT22;8207;52.494;4.654;2022-07-29T01:17:40;16.30;97.10
16200;DHT22;8207;52.494;4.654;2022-07-29T01:20:13;16.30;98.20
16200;DHT22;8207;52.494;4.654;2022-07-29T01:23:01;16.30;98.80
16200;DHT22;8207;52.494;4.654;2022-07-29T01:28:49;16.30;97.90
16200;DHT22;8207;52.494;4.654;2022-07-29T01:31:22;16.20;99.90
16200;DHT22;8207;52.494;4.654;2022-07-29T01:33:57;16.20;99.90
16200;DHT22;8207;52.494;4.654;2022-07-29T01:36:29;16.10;99.90
16200;DHT22;8207;52.494;4.654;2022-07-29T01:39:02;16.10;99.90
16200;DHT22;8207;52.494;4.654;2022-07-29T01:41:32;16.10;99.90
16200;DHT22;8207;52.494;4.654;2022-07-29T01:44:10;16.10;99.90
16200;DHT22;8207;52.494;4.654;2022-07-29T01:46:41;16.10;99.90
16200;DHT22;8207;52.494;4.654;2022-07-29T01:49:13;16.10;99.90
16200;DHT22;8207;52.494;4.654;2022-07-29T01:51:43;16.00;99.90
16200;DHT22;8207;52.494;4.654;2022-07-29T01:54:16;16.00;99.90
16200;DHT22;8207;52.494;4.654;2022-07-29T01:56:46;16.00;99.90
16200;DHT22;8207;52.494;4.654;2022-07-29T01:59:16;16.00;99.90
16200;DHT22;8207;52.494;4.654;2022-07-29T02:01:45;16.00;99.90
16200;DHT22;8207;52.494;4.654;2022-07-29T02:04:15;16.00;99.90
16200;DHT22;8207;52.494;4.654;2022-07-29T02:06:44;15.90;99.90
16200;DHT22;8207;52.494;4.654;2022-07-29T02:09:13;16.00;99.90
16200;DHT22;8207;52.494;4.654;2022-07-29T02:11:45;16.00;99.90
16200;DHT22;8207;52.494;4.654;2022-07-29T02:14:16;15.90;99.90
16200;DHT22;8207;52.494;4.654;2022-07-29T02:16:45;16.00;99.90
16200;DHT22;8207;52.494;4.654;2022-07-29T02:19:14;15.90;99.90
16200;DHT22;8207;52.494;4.654;2022-07-29T02:21:45;16.00;99.90
16200;DHT22;8207;52.494;4.654;2022-07-29T02:24:12;15.90;99.90
16200;DHT22;8207;52.494;4.654;2022-07-29T02:26:41;15.90;99.90
16200;DHT22;8207;52.494;4.654;2022-07-29T02:29:10;15.90;99.90
16200;DHT22;8207;52.494;4.654;2022-07-29T02:31:39;15.90;99.90
16200;DHT22;8207;52.494;4.654;2022-07-29T02:34:10;15.90;99.90
16200;DHT22;8207;52.494;4.654;2022-07-29T02:36:38;15.80;99.90
16200;DHT22;8207;52.494;4.654;2022-07-29T02:39:09;15.80;99.90
16200;DHT22;8207;52.494;4.654;2022-07-29T02:41:41;15.80;99.90
16200;DHT22;8207;52.494;4.654;2022-07-29T02:44:10;15.80;99.90
16200;DHT22;8207;52.494;4.654;2022-07-29T02:46:46;15.90;99.90
16200;DHT22;8207;52.494;4.654;2022-07-29T02:49:18;15.90;99.90
16200;DHT22;8207;52.494;4.654;2022-07-29T02:51:53;15.80;99.90
16200;DHT22;8207;52.494;4.654;2022-07-29T02:54:24;15.80;99.90
16200;DHT22;8207;52.494;4.654;2022-07-29T02:56:53;15.90;99.90
16200;DHT22;8207;52.494;4.654;2022-07-29T02:59:24;15.90;99.90
16200;DHT22;8207;52.494;4.654;2022-07-29T03:01:55;15.90;99.90
16200;DHT22;8207;52.494;4.654;2022-07-29T03:04:26;15.90;99.90
16200;DHT22;8207;52.494;4.654;2022-07-29T03:06:55;15.90;99.90
16200;DHT22;8207;52.494;4.654;2022-07-29T03:09:25;15.80;99.90
16200;DHT22;8207;52.494;4.654;2022-07-29T03:11:54;15.80;99.90
16200;DHT22;8207;52.494;4.654;2022-07-29T03:14:21;15.80;99.90
16200;DHT22;8207;52.494;4.654;2022-07-29T03:16:49;15.80;99.90
16200;DHT22;8207;52.494;4.654;2022-07-29T03:19:19;15.80;99.90
16200;DHT22;8207;52.494;4.654;2022-07-29T03:21:47;15.90;99.90
16200;DHT22;8207;52.494;4.654;2022-07-29T03:24:27;15.90;99.90
16200;DHT22;8207;52.494;4.654;2022-07-29T03:26:55;15.80;99.90
16200;DHT22;8207;52.494;4.654;2022-07-29T03:29:22;15.80;99.90
16200;DHT22;8207;52.494;4.654;2022-07-29T03:31:49;15.90;99.90
16200;DHT22;8207;52.494;4.654;2022-07-29T03:34:17;15.80;99.90
16200;DHT22;8207;52.494;4.654;2022-07-29T03:36:44;15.80;99.90
16200;DHT22;8207;52.494;4.654;2022-07-29T03:39:13;15.80;99.90
16200;DHT22;8207;52.494;4.654;2022-07-29T03:41:43;15.80;99.90
16200;DHT22;8207;52.494;4.654;2022-07-29T03:44:11;15.80;99.90
16200;DHT22;8207;52.494;4.654;2022-07-29T03:46:39;15.80;99.90
16200;DHT22;8207;52.494;4.654;2022-07-29T03:49:06;15.70;99.90
16200;DHT22;8207;52.494;4.654;2022-07-29T03:51:36;15.70;99.90
16200;DHT22;8207;52.494;4.654;2022-07-29T03:54:03;15.70;99.90
16200;DHT22;8207;52.494;4.654;2022-07-29T03:56:34;15.70;99.90
16200;DHT22;8207;52.494;4.654;2022-07-29T03:59:02;15.70;99.90
16200;DHT22;8207;52.494;4.654;2022-07-29T04:01:29;15.70;99.90
16200;DHT22;8207;52.494;4.654;2022-07-29T04:03:59;15.70;99.90
16200;DHT22;8207;52.494;4.654;2022-07-29T04:06:27;15.70;99.90
16200;DHT22;8207;52.494;4.654;2022-07-29T04:08:55;15.70;99.90
16200;DHT22;8207;52.494;4.654;2022-07-29T04:11:22;15.60;99.90
16200;DHT22;8207;52.494;4.654;2022-07-29T04:13:49;15.60;99.90
16200;DHT22;8207;52.494;4.654;2022-07-29T04:16:16;15.70;99.90
16200;DHT22;8207;52.494;4.654;2022-07-29T04:18:43;15.60;99.90
16200;DHT22;8207;52.494;4.654;2022-07-29T04:21:10;15.60;99.90
16200;DHT22;8207;52.494;4.654;2022-07-29T04:23:36;15.60;99.90
16200;DHT22;8207;52.494;4.654;2022-07-29T04:26:05;15.60;99.90
16200;DHT22;8207;52.494;4.654;2022-07-29T04:28:35;15.60;99.90
16200;DHT22;8207;52.494;4.654;2022-07-29T04:31:02;15.60;99.90
16200;DHT22;8207;52.494;4.654;2022-07-29T04:33:28;15.60;99.90
16200;DHT22;8207;52.494;4.654;2022-07-29T04:35:55;15.70;99.90
16200;DHT22;8207;52.494;4.654;2022-07-29T04:38:22;15.70;99.90
16200;DHT22;8207;52.494;4.654;2022-07-29T04:40:49;15.70;99.90
16200;DHT22;8207;52.494;4.654;2022-07-29T04:43:17;15.70;99.90
16200;DHT22;8207;52.494;4.654;2022-07-29T04:45:44;15.70;99.90
16200;DHT22;8207;52.494;4.654;2022-07-29T04:48:11;15.70;99.90
16200;DHT22;8207;52.494;4.654;2022-07-29T04:50:38;15.70;99.90
16200;DHT22;8207;52.494;4.654;2022-07-29T04:53:06;15.80;99.90
16200;DHT22;8207;52.494;4.654;2022-07-29T04:55:33;15.80;99.90
16200;DHT22;8207;52.494;4.654;2022-07-29T04:58:00;15.80;99.90
16200;DHT22;8207;52.494;4.654;2022-07-29T05:00:28;15.80;99.90
16200;DHT22;8207;52.494;4.654;2022-07-29T05:02:55;15.80;99.90
16200;DHT22;8207;52.494;4.654;2022-07-29T05:05:22;15.90;99.90
16200;DHT22;8207;52.494;4.654;2022-07-29T05:07:49;15.90;99.90
16200;DHT22;8207;52.494;4.654;2022-07-29T05:10:16;15.90;99.90
16200;DHT22;8207;52.494;4.654;2022-07-29T05:12:42;16.00;99.90
16200;DHT22;8207;52.494;4.654;2022-07-29T05:15:10;16.00;99.90
16200;DHT22;8207;52.494;4.654;2022-07-29T05:17:41;16.10;99.90
16200;DHT22;8207;52.494;4.654;2022-07-29T05:20:08;16.10;99.90
16200;DHT22;8207;52.494;4.654;2022-07-29T05:22:35;16.10;99.90
16200;DHT22;8207;52.494;4.654;2022-07-29T05:25:03;16.10;99.90
16200;DHT22;8207;52.494;4.654;2022-07-29T05:27:30;16.10;99.90
16200;DHT22;8207;52.494;4.654;2022-07-29T05:29:57;16.20;99.90
16200;DHT22;8207;52.494;4.654;2022-07-29T05:32:23;16.20;99.90
16200;DHT22;8207;52.494;4.654;2022-07-29T05:34:52;16.30;99.90
16200;DHT22;8207;52.494;4.654;2022-07-29T05:37:19;16.40;99.90
16200;DHT22;8207;52.494;4.654;2022-07-29T05:39:46;16.40;99.90
16200;DHT22;8207;52.494;4.654;2022-07-29T05:42:13;16.50;99.90
16200;DHT22;8207;52.494;4.654;2022-07-29T05:44:40;16.50;99.90
16200;DHT22;8207;52.494;4.654;2022-07-29T05:47:07;16.50;99.90
16200;DHT22;8207;52.494;4.654;2022-07-29T05:49:34;16.50;99.90
16200;DHT22;8207;52.494;4.654;2022-07-29T05:52:02;16.60;99.90
16200;DHT22;8207;52.494;4.654;2022-07-29T05:54:29;16.50;99.90
16200;DHT22;8207;52.494;4.654;2022-07-29T05:56:56;16.60;99.90
16200;DHT22;8207;52.494;4.654;2022-07-29T05:59:23;16.60;99.90
16200;DHT22;8207;52.494;4.654;2022-07-29T06:01:50;16.60;99.90
16200;DHT22;8207;52.494;4.654;2022-07-29T06:04:16;16.60;99.90
16200;DHT22;8207;52.494;4.654;2022-07-29T06:06:43;16.50;99.90
16200;DHT22;8207;52.494;4.654;2022-07-29T06:09:13;16.50;99.90
16200;DHT22;8207;52.494;4.654;2022-07-29T06:11:41;16.60;99.90
16200;DHT22;8207;52.494;4.654;2022-07-29T06:14:08;16.60;99.90
16200;DHT22;8207;52.494;4.654;2022-07-29T06:16:35;16.70;99.90
16200;DHT22;8207;52.494;4.654;2022-07-29T06:19:02;16.80;99.90
16200;DHT22;8207;52.494;4.654;2022-07-29T06:21:29;17.10;99.90
16200;DHT22;8207;52.494;4.654;2022-07-29T06:23:56;17.40;92.00
16200;DHT22;8207;52.494;4.654;2022-07-29T06:26:24;17.70;90.80
16200;DHT22;8207;52.494;4.654;2022-07-29T06:28:51;18.00;51.40
16200;DHT22;8207;52.494;4.654;2022-07-29T06:31:18;18.20;29.00
16200;DHT22;8207;52.494;4.654;2022-07-29T06:33:45;18.40;25.90
16200;DHT22;8207;52.494;4.654;2022-07-29T06:36:12;18.50;16.20
16200;DHT22;8207;52.494;4.654;2022-07-29T06:38:39;18.60;5.80
16200;DHT22;8207;52.494;4.654;2022-07-29T06:41:08;18.70;1.60
16200;DHT22;8207;52.494;4.654;2022-07-29T06:43:40;18.70;1.00
16200;DHT22;8207;52.494;4.654;2022-07-29T06:46:09;18.80;1.00
16200;DHT22;8207;52.494;4.654;2022-07-29T06:48:36;18.80;1.00
16200;DHT22;8207;52.494;4.654;2022-07-29T06:51:03;18.90;1.00
16200;DHT22;8207;52.494;4.654;2022-07-29T06:53:31;18.80;1.00
16200;DHT22;8207;52.494;4.654;2022-07-29T06:55:59;18.70;1.00
16200;DHT22;8207;52.494;4.654;2022-07-29T06:58:27;18.60;1.00
16200;DHT22;8207;52.494;4.654;2022-07-29T07:00:56;18.50;1.00
16200;DHT22;8207;52.494;4.654;2022-07-29T07:03:24;18.40;1.00
16200;DHT22;8207;52.494;4.654;2022-07-29T07:05:52;18.40;1.00
16200;DHT22;8207;52.494;4.654;2022-07-29T07:08:20;18.50;1.00
16200;DHT22;8207;52.494;4.654;2022-07-29T07:10:48;18.50;1.00
16200;DHT22;8207;52.494;4.654;2022-07-29T07:13:15;18.80;1.00
16200;DHT22;8207;52.494;4.654;2022-07-29T07:15:43;19.10;1.00
16200;DHT22;8207;52.494;4.654;2022-07-29T07:18:12;19.60;1.00
16200;DHT22;8207;52.494;4.654;2022-07-29T07:20:39;20.00;1.00
16200;DHT22;8207;52.494;4.654;2022-07-29T07:23:06;20.50;1.00
16200;DHT22;8207;52.494;4.654;2022-07-29T07:25:33;21.00;1.00
16200;DHT22;8207;52.494;4.654;2022-07-29T07:28:00;21.30;1.00
16200;DHT22;8207;52.494;4.654;2022-07-29T07:30:27;21.60;1.00
16200;DHT22;8207;52.494;4.654;2022-07-29T07:32:54;21.90;1.00
16200;DHT22;8207;52.494;4.654;2022-07-29T07:35:23;21.90;1.00
16200;DHT22;8207;52.494;4.654;2022-07-29T07:37:50;21.90;1.00
16200;DHT22;8207;52.494;4.654;2022-07-29T07:40:16;22.00;1.00
16200;DHT22;8207;52.494;4.654;2022-07-29T07:42:43;22.00;1.00
16200;DHT22;8207;52.494;4.654;2022-07-29T07:45:11;22.30;99.90
16200;DHT22;8207;52.494;4.654;2022-07-29T07:47:38;22.30;99.90
16200;DHT22;8207;52.494;4.654;2022-07-29T07:50:08;22.40;99.90
16200;DHT22;8207;52.494;4.654;2022-07-29T07:52:45;22.40;99.90
16200;DHT22;8207;52.494;4.654;2022-07-29T07:55:12;22.50;56.80
16200;DHT22;8207;52.494;4.654;2022-07-29T07:57:39;22.30;99.90
16200;DHT22;8207;52.494;4.654;2022-07-29T08:00:07;22.10;99.90
16200;DHT22;8207;52.494;4.654;2022-07-29T08:02:34;22.00;99.90
16200;DHT22;8207;52.494;4.654;2022-07-29T08:05:01;21.60;1.00
16200;DHT22;8207;52.494;4.654;2022-07-29T08:07:28;21.30;1.00
16200;DHT22;8207;52.494;4.654;2022-07-29T08:09:56;21.30;1.00
16200;DHT22;8207;52.494;4.654;2022-07-29T08:12:23;21.50;1.00
16200;DHT22;8207;52.494;4.654;2022-07-29T08:14:50;21.70;1.00
16200;DHT22;8207;52.494;4.654;2022-07-29T08:17:17;21.60;1.00
16200;DHT22;8207;52.494;4.654;2022-07-29T08:19:44;21.80;1.00
16200;DHT22;8207;52.494;4.654;2022-07-29T08:22:11;22.10;1.00
16200;DHT22;8207;52.494;4.654;2022-07-29T08:24:38;22.10;99.90
16200;DHT22;8207;52.494;4.654;2022-07-29T08:27:19;22.20;99.90
16200;DHT22;8207;52.494;4.654;2022-07-29T08:29:46;22.20;1.00
16200;DHT22;8207;52.494;4.654;2022-07-29T08:32:13;22.10;99.90
16200;DHT22;8207;52.494;4.654;2022-07-29T08:34:40;22.00;99.90
16200;DHT22;8207;52.494;4.654;2022-07-29T08:37:09;22.10;99.90
16200;DHT22;8207;52.494;4.654;2022-07-29T08:39:36;22.10;99.90
16200;DHT22;8207;52.494;4.654;2022-07-29T08:42:03;22.30;99.90
16200;DHT22;8207;52.494;4.654;2022-07-29T08:44:33;22.30;99.90
16200;DHT22;8207;52.494;4.654;2022-07-29T08:47:01;22.30;99.90
16200;DHT22;8207;52.494;4.654;2022-07-29T08:49:28;22.20;99.90
16200;DHT22;8207;52.494;4.654;2022-07-29T08:51:55;22.30;99.90
16200;DHT22;8207;52.494;4.654;2022-07-29T08:54:23;22.40;99.90
16200;DHT22;8207;52.494;4.654;2022-07-29T08:56:51;22.50;99.90
16200;DHT22;8207;52.494;4.654;2022-07-29T08:59:20;22.70;60.50
16200;DHT22;8207;52.494;4.654;2022-07-29T09:01:50;22.50;99.90
16200;DHT22;8207;52.494;4.654;2022-07-29T09:04:19;22.70;99.90
16200;DHT22;8207;52.494;4.654;2022-07-29T09:06:48;22.70;99.90
16200;DHT22;8207;52.494;4.654;2022-07-29T09:09:15;22.60;99.90
16200;DHT22;8207;52.494;4.654;2022-07-29T09:11:43;22.80;99.90
16200;DHT22;8207;52.494;4.654;2022-07-29T09:14:12;23.10;99.90
16200;DHT22;8207;52.494;4.654;2022-07-29T09:16:51;23.20;1.00
16200;DHT22;8207;52.494;4.654;2022-07-29T09:19:24;23.10;1.00
16200;DHT22;8207;52.494;4.654;2022-07-29T09:21:51;22.90;1.00
16200;DHT22;8207;52.494;4.654;2022-07-29T09:24:25;23.00;1.00
16200;DHT22;8207;52.494;4.654;2022-07-29T09:26:52;23.10;1.00
16200;DHT22;8207;52.494;4.654;2022-07-29T09:29:20;23.30;1.00
16200;DHT22;8207;52.494;4.654;2022-07-29T09:31:51;23.30;31.80
16200;DHT22;8207;52.494;4.654;2022-07-29T09:34:22;23.30;1.00
16200;DHT22;8207;52.494;4.654;2022-07-29T09:36:50;23.40;1.00
16200;DHT22;8207;52.494;4.654;2022-07-29T09:39:27;23.30;39.30
16200;DHT22;8207;52.494;4.654;2022-07-29T09:41:57;23.30;78.30
16200;DHT22;8207;52.494;4.654;2022-07-29T09:44:24;23.20;1.00
16200;DHT22;8207;52.494;4.654;2022-07-29T09:46:58;23.40;1.00
16200;DHT22;8207;52.494;4.654;2022-07-29T09:49:31;23.50;1.00
16200;DHT22;8207;52.494;4.654;2022-07-29T09:52:06;23.90;99.90
16200;DHT22;8207;52.494;4.654;2022-07-29T09:54:34;24.20;1.00
16200;DHT22;8207;52.494;4.654;2022-07-29T09:57:04;24.40;1.00
16200;DHT22;8207;52.494;4.654;2022-07-29T09:59:31;24.90;1.00
16200;DHT22;8207;52.494;4.654;2022-07-29T10:02:00;25.40;35.20
16200;DHT22;8207;52.494;4.654;2022-07-29T10:04:37;25.70;1.00
16200;DHT22;8207;52.494;4.654;2022-07-29T10:07:05;25.80;1.00
16200;DHT22;8207;52.494;4.654;2022-07-29T10:09:32;25.50;1.00
16200;DHT22;8207;52.494;4.654;2022-07-29T10:12:08;25.50;1.00
16200;DHT22;8207;52.494;4.654;2022-07-29T10:14:37;25.50;1.00
16200;DHT22;8207;52.494;4.654;2022-07-29T10:17:06;25.50;1.00
16200;DHT22;8207;52.494;4.654;2022-07-29T10:19:35;25.70;1.00
16200;DHT22;8207;52.494;4.654;2022-07-29T10:22:04;25.70;99.90
16200;DHT22;8207;52.494;4.654;2022-07-29T10:24:32;25.70;1.00
16200;DHT22;8207;52.494;4.654;2022-07-29T10:27:00;25.60;99.90
16200;DHT22;8207;52.494;4.654;2022-07-29T10:32:20;25.80;99.90
16200;DHT22;8207;52.494;4.654;2022-07-29T10:35:06;25.40;99.90
16200;DHT22;8207;52.494;4.654;2022-07-29T10:37:46;25.50;99.90
16200;DHT22;8207;52.494;4.654;2022-07-29T10:40:27;25.50;99.90
16200;DHT22;8207;52.494;4.654;2022-07-29T10:43:19;25.40;99.90
16200;DHT22;8207;52.494;4.654;2022-07-29T10:45:48;25.10;99.90
16200;DHT22;8207;52.494;4.654;2022-07-29T10:48:17;25.20;1.00
16200;DHT22;8207;52.494;4.654;2022-07-29T10:50:55;25.30;99.90
16200;DHT22;8207;52.494;4.654;2022-07-29T10:53:22;25.30;1.00
16200;DHT22;8207;52.494;4.654;2022-07-29T10:55:51;25.40;1.00
16200;DHT22;8207;52.494;4.654;2022-07-29T10:58:20;25.60;1.00
16200;DHT22;8207;52.494;4.654;2022-07-29T11:00:49;25.60;1.00
16200;DHT22;8207;52.494;4.654;2022-07-29T11:03:46;25.70;1.00
16200;DHT22;8207;52.494;4.654;2022-07-29T11:06:13;26.20;99.90
16200;DHT22;8207;52.494;4.654;2022-07-29T11:08:40;26.60;99.90
16200;DHT22;8207;52.494;4.654;2022-07-29T11:11:35;26.70;1.00
16200;DHT22;8207;52.494;4.654;2022-07-29T11:14:06;26.90;1.00
16200;DHT22;8207;52.494;4.654;2022-07-29T11:16:58;26.70;1.00
16200;DHT22;8207;52.494;4.654;2022-07-29T11:19:27;26.70;1.00
16200;DHT22;8207;52.494;4.654;2022-07-29T11:21:53;26.80;1.00
16200;DHT22;8207;52.494;4.654;2022-07-29T11:24:22;26.80;1.00
16200;DHT22;8207;52.494;4.654;2022-07-29T11:27:13;27.00;1.00
16200;DHT22;8207;52.494;4.654;2022-07-29T11:29:49;27.20;1.00
16200;DHT22;8207;52.494;4.654;2022-07-29T11:32:17;27.60;1.00
16200;DHT22;8207;52.494;4.654;2022-07-29T11:34:47;27.80;1.00
16200;DHT22;8207;52.494;4.654;2022-07-29T11:37:19;27.90;99.90
16200;DHT22;8207;52.494;4.654;2022-07-29T11:42:40;28.10;99.90
16200;DHT22;8207;52.494;4.654;2022-07-29T11:45:09;28.00;99.90
16200;DHT22;8207;52.494;4.654;2022-07-29T11:47:39;28.20;99.90
16200;DHT22;8207;52.494;4.654;2022-07-29T11:50:10;28.40;1.00
16200;DHT22;8207;52.494;4.654;2022-07-29T11:52:39;28.30;1.00
16200;DHT22;8207;52.494;4.654;2022-07-29T11:55:12;28.30;1.00
16200;DHT22;8207;52.494;4.654;2022-07-29T11:57:46;28.30;1.00
16200;DHT22;8207;52.494;4.654;2022-07-29T12:00:22;28.40;1.00
16200;DHT22;8207;52.494;4.654;2022-07-29T12:02:49;28.20;1.00
16200;DHT22;8207;52.494;4.654;2022-07-29T12:05:18;28.00;1.00
16200;DHT22;8207;52.494;4.654;2022-07-29T12:07:45;27.80;1.00
16200;DHT22;8207;52.494;4.654;2022-07-29T12:10:12;27.80;1.00
16200;DHT22;8207;52.494;4.654;2022-07-29T12:12:39;27.90;1.00
16200;DHT22;8207;52.494;4.654;2022-07-29T12:15:13;28.10;1.00
16200;DHT22;8207;52.494;4.654;2022-07-29T12:17:42;28.30;1.00
16200;DHT22;8207;52.494;4.654;2022-07-29T12:20:09;28.40;1.00
16200;DHT22;8207;52.494;4.654;2022-07-29T12:22:40;28.70;1.00
16200;DHT22;8207;52.494;4.654;2022-07-29T12:25:11;28.90;1.00
16200;DHT22;8207;52.494;4.654;2022-07-29T12:27:40;29.10;99.90
16200;DHT22;8207;52.494;4.654;2022-07-29T12:30:09;29.10;99.90
16200;DHT22;8207;52.494;4.654;2022-07-29T12:32:38;29.10;99.90
16200;DHT22;8207;52.494;4.654;2022-07-29T12:35:06;29.10;99.90
16200;DHT22;8207;52.494;4.654;2022-07-29T12:37:35;29.10;99.90
16200;DHT22;8207;52.494;4.654;2022-07-29T12:40:06;29.10;99.90
16200;DHT22;8207;52.494;4.654;2022-07-29T12:42:33;29.00;99.90
16200;DHT22;8207;52.494;4.654;2022-07-29T12:45:01;28.80;99.90
16200;DHT22;8207;52.494;4.654;2022-07-29T12:47:29;28.60;99.90
16200;DHT22;8207;52.494;4.654;2022-07-29T12:50:09;28.40;99.90
16200;DHT22;8207;52.494;4.654;2022-07-29T12:52:40;28.00;99.90
16200;DHT22;8207;52.494;4.654;2022-07-29T12:55:08;27.70;99.90
16200;DHT22;8207;52.494;4.654;2022-07-29T12:57:45;28.00;99.90
16200;DHT22;8207;52.494;4.654;2022-07-29T13:00:14;28.00;99.90
16200;DHT22;8207;52.494;4.654;2022-07-29T13:02:42;27.90;99.90
16200;DHT22;8207;52.494;4.654;2022-07-29T13:05:10;27.90;99.90
16200;DHT22;8207;52.494;4.654;2022-07-29T13:07:38;28.20;99.90
16200;DHT22;8207;52.494;4.654;2022-07-29T13:10:14;28.20;99.90
16200;DHT22;8207;52.494;4.654;2022-07-29T13:13:03;28.20;99.90
16200;DHT22;8207;52.494;4.654;2022-07-29T13:15:32;28.10;99.90
16200;DHT22;8207;52.494;4.654;2022-07-29T13:17:59;28.00;99.90
16200;DHT22;8207;52.494;4.654;2022-07-29T13:20:28;28.00;99.90
16200;DHT22;8207;52.494;4.654;2022-07-29T13:22:56;28.10;99.90
16200;DHT22;8207;52.494;4.654;2022-07-29T13:25:26;28.00;99.90
16200;DHT22;8207;52.494;4.654;2022-07-29T13:27:53;28.10;99.90
16200;DHT22;8207;52.494;4.654;2022-07-29T13:30:21;27.90;99.90
16200;DHT22;8207;52.494;4.654;2022-07-29T13:32:48;28.00;99.90
16200;DHT22;8207;52.494;4.654;2022-07-29T13:35:16;27.70;99.90
16200;DHT22;8207;52.494;4.654;2022-07-29T13:37:43;27.40;99.90
16200;DHT22;8207;52.494;4.654;2022-07-29T13:40:11;27.00;99.90
16200;DHT22;8207;52.494;4.654;2022-07-29T13:42:41;26.70;99.90
16200;DHT22;8207;52.494;4.654;2022-07-29T13:45:09;26.50;99.90
16200;DHT22;8207;52.494;4.654;2022-07-29T13:47:37;26.40;1.00
16200;DHT22;8207;52.494;4.654;2022-07-29T13:50:05;26.50;99.90
16200;DHT22;8207;52.494;4.654;2022-07-29T13:52:33;26.40;99.90
16200;DHT22;8207;52.494;4.654;2022-07-29T13:55:00;26.50;1.00
16200;DHT22;8207;52.494;4.654;2022-07-29T13:57:28;26.50;1.00
16200;DHT22;8207;52.494;4.654;2022-07-29T13:59:56;26.40;99.90
16200;DHT22;8207;52.494;4.654;2022-07-29T14:02:24;26.30;99.90
16200;DHT22;8207;52.494;4.654;2022-07-29T14:04:50;26.40;1.00
16200;DHT22;8207;52.494;4.654;2022-07-29T14:07:18;26.40;1.00
16200;DHT22;8207;52.494;4.654;2022-07-29T14:09:44;26.40;1.00
16200;DHT22;8207;52.494;4.654;2022-07-29T14:12:11;26.30;1.00
16200;DHT22;8207;52.494;4.654;2022-07-29T14:14:38;26.30;1.00
16200;DHT22;8207;52.494;4.654;2022-07-29T14:17:08;26.20;1.00
16200;DHT22;8207;52.494;4.654;2022-07-29T14:19:35;26.30;1.00
16200;DHT22;8207;52.494;4.654;2022-07-29T14:22:03;26.50;1.00
16200;DHT22;8207;52.494;4.654;2022-07-29T14:24:30;26.70;1.00
16200;DHT22;8207;52.494;4.654;2022-07-29T14:26:57;26.60;1.00
16200;DHT22;8207;52.494;4.654;2022-07-29T14:29:24;26.50;1.00
16200;DHT22;8207;52.494;4.654;2022-07-29T14:31:51;26.30;1.00
16200;DHT22;8207;52.494;4.654;2022-07-29T14:34:19;26.30;1.00
16200;DHT22;8207;52.494;4.654;2022-07-29T14:36:46;26.20;1.00
16200;DHT22;8207;52.494;4.654;2022-07-29T14:39:14;26.30;1.00
16200;DHT22;8207;52.494;4.654;2022-07-29T14:41:41;26.30;1.00
16200;DHT22;8207;52.494;4.654;2022-07-29T14:44:09;26.40;1.00
16200;DHT22;8207;52.494;4.654;2022-07-29T14:46:35;26.60;1.00
16200;DHT22;8207;52.494;4.654;2022-07-29T14:49:02;26.60;1.00
16200;DHT22;8207;52.494;4.654;2022-07-29T14:51:32;26.60;1.00
16200;DHT22;8207;52.494;4.654;2022-07-29T14:53:59;26.70;1.00
16200;DHT22;8207;52.494;4.654;2022-07-29T14:56:26;26.60;1.00
16200;DHT22;8207;52.494;4.654;2022-07-29T14:58:55;26.40;30.30
16200;DHT22;8207;52.494;4.654;2022-07-29T15:01:22;26.50;99.90
16200;DHT22;8207;52.494;4.654;2022-07-29T15:03:49;26.30;99.90
16200;DHT22;8207;52.494;4.654;2022-07-29T15:06:17;26.40;1.00
16200;DHT22;8207;52.494;4.654;2022-07-29T15:08:45;26.40;1.00
16200;DHT22;8207;52.494;4.654;2022-07-29T15:11:14;26.40;1.00
16200;DHT22;8207;52.494;4.654;2022-07-29T15:13:41;26.50;1.00
16200;DHT22;8207;52.494;4.654;2022-07-29T15:16:08;26.30;1.00
16200;DHT22;8207;52.494;4.654;2022-07-29T15:18:35;26.00;38.40
16200;DHT22;8207;52.494;4.654;2022-07-29T15:21:03;25.80;1.00
16200;DHT22;8207;52.494;4.654;2022-07-29T15:23:32;25.70;1.00
16200;DHT22;8207;52.494;4.654;2022-07-29T15:26:00;25.60;30.60
16200;DHT22;8207;52.494;4.654;2022-07-29T15:28:27;25.50;99.90
16200;DHT22;8207;52.494;4.654;2022-07-29T15:30:54;25.50;1.00
16200;DHT22;8207;52.494;4.654;2022-07-29T15:33:21;25.50;1.00
16200;DHT22;8207;52.494;4.654;2022-07-29T15:35:48;25.60;1.00
16200;DHT22;8207;52.494;4.654;2022-07-29T15:38:15;25.70;1.00
16200;DHT22;8207;52.494;4.654;2022-07-29T15:40:42;25.80;1.00
16200;DHT22;8207;52.494;4.654;2022-07-29T15:43:12;25.90;1.00
16200;DHT22;8207;52.494;4.654;2022-07-29T15:45:40;26.00;1.00
16200;DHT22;8207;52.494;4.654;2022-07-29T15:48:27;26.00;99.90
16200;DHT22;8207;52.494;4.654;2022-07-29T15:50:54;26.00;99.90
16200;DHT22;8207;52.494;4.654;2022-07-29T15:53:21;25.90;1.00
16200;DHT22;8207;52.494;4.654;2022-07-29T15:55:48;25.80;99.90
16200;DHT22;8207;52.494;4.654;2022-07-29T15:58:19;25.60;24.40
16200;DHT22;8207;52.494;4.654;2022-07-29T16:00:49;25.60;99.90
16200;DHT22;8207;52.494;4.654;2022-07-29T16:03:15;25.70;1.00
16200;DHT22;8207;52.494;4.654;2022-07-29T16:05:43;25.70;92.20
16200;DHT22;8207;52.494;4.654;2022-07-29T16:08:10;25.70;99.90
16200;DHT22;8207;52.494;4.654;2022-07-29T16:10:39;25.70;99.90
16200;DHT22;8207;52.494;4.654;2022-07-29T16:13:06;25.50;1.00